Time;durP1;ratioP1;P1;durP2;ratioP2;P2;SDS_P1;SDS_P2;PMS_P1;PMS_P2;Temp;Humidity;BMP_temperature;BMP_pressure;BME280_temperature;BME280_humidity;BME280_pressure;Samples;Min_cycle;Max_cycle;Signal;HPM_P1;HPM_P2
2022/04/27 00:01:28;;;;;;;0.50;0.50;;;9.80;99.90;9.30;102163.00;;;;5118269;27;20556;-65
2022/04/27 00:03:54;;;;;;;0.97;0.97;;;9.80;99.90;9.90;102165.00;;;;5136955;27;20277;-65
2022/04/27 00:06:25;;;;;;;0.40;0.40;;;9.90;99.90;10.00;102193.00;;;;5135308;27;20696;-65
2022/04/27 00:08:52;;;;;;;1.77;1.67;;;10.10;99.90;9.50;102152.00;;;;5135744;27;20252;-65
2022/04/27 00:11:18;;;;;;;0.40;0.40;;;10.00;99.90;9.60;102171.00;;;;5135473;27;20947;-65
2022/04/27 00:13:46;;;;;;;0.40;0.40;;;10.00;99.90;9.70;102203.00;;;;5135882;27;20177;-64
2022/04/27 00:16:15;;;;;;;0.70;0.70;;;9.90;99.90;9.20;102187.00;;;;5135206;27;20184;-66
2022/04/27 00:18:44;;;;;;;0.47;0.47;;;9.70;99.90;9.60;102199.00;;;;5135520;27;20176;-65
2022/04/27 00:21:10;;;;;;;1.60;1.07;;;9.80;99.90;9.50;102164.00;;;;5134749;27;20180;-66
2022/04/27 00:23:41;;;;;;;0.50;0.50;;;9.80;99.90;9.60;102199.00;;;;5135097;27;20189;-64
2022/04/27 00:26:07;;;;;;;0.53;0.53;;;9.90;99.90;9.60;102189.00;;;;5134806;27;20179;-64
2022/04/27 00:28:33;;;;;;;0.70;0.70;;;9.80;99.90;8.80;102185.00;;;;5135089;27;20663;-65
2022/04/27 00:31:06;;;;;;;0.60;0.60;;;9.60;99.90;8.50;102149.00;;;;5134264;27;20917;-64
2022/04/27 00:33:38;;;;;;;1.47;0.87;;;9.30;99.90;8.80;102202.00;;;;5134892;27;20188;-67
2022/04/27 00:36:04;;;;;;;0.40;0.40;;;9.10;99.90;9.30;102213.00;;;;5117387;27;20271;-66
2022/04/27 00:38:35;;;;;;;0.50;0.50;;;9.40;99.90;9.60;102208.00;;;;5135108;27;20184;-65
2022/04/27 00:41:07;;;;;;;0.40;0.40;;;9.60;99.90;9.60;102211.00;;;;5135118;27;20183;-65
2022/04/27 00:43:43;;;;;;;0.40;0.40;;;9.80;99.90;8.60;102204.00;;;;5135617;27;20183;-65
2022/04/27 00:46:11;;;;;;;0.40;0.40;;;9.40;99.90;8.40;102164.00;;;;5134705;27;20178;-66
2022/04/27 00:48:41;;;;;;;0.60;0.60;;;9.10;99.90;8.20;102208.00;;;;5134833;27;20259;-65
2022/04/27 00:51:24;;;;;;;0.40;0.40;;;9.00;99.90;8.50;102205.00;;;;5134531;27;20281;-65
2022/04/27 00:53:51;;;;;;;0.40;0.40;;;9.00;99.90;8.30;102160.00;;;;5134679;27;20216;-65
2022/04/27 00:56:23;;;;;;;0.73;0.73;;;9.00;99.90;8.60;102207.00;;;;5133676;27;20611;-65
2022/04/27 00:58:53;;;;;;;0.50;0.50;;;9.10;99.90;8.00;102209.00;;;;5134140;27;20623;-66
2022/04/27 01:01:22;;;;;;;1.13;1.03;;;8.90;99.90;8.50;102209.00;;;;5096853;28;20278;-65
2022/04/27 01:03:54;;;;;;;2.73;1.43;;;9.00;99.90;8.10;102206.00;;;;5115126;27;20185;-65
2022/04/27 01:06:23;;;;;;;0.57;0.57;;;8.90;99.90;8.20;102216.00;;;;5097325;28;20190;-65
2022/04/27 01:08:57;;;;;;;0.77;0.77;;;8.80;99.90;8.40;102207.00;;;;5096936;28;20210;-65
2022/04/27 01:11:31;;;;;;;0.30;0.30;;;8.80;99.90;8.10;102208.00;;;;5113072;28;20204;-66
2022/04/27 01:14:02;;;;;;;0.40;0.40;;;8.80;99.90;8.90;102183.00;;;;5096980;28;20189;-65
2022/04/27 01:16:34;;;;;;;0.30;0.30;;;9.00;99.90;8.20;102197.00;;;;5113181;28;20271;-66
2022/04/27 01:19:05;;;;;;;2.13;2.03;;;9.00;99.90;8.20;102207.00;;;;5114549;28;20168;-66
2022/04/27 01:21:39;;;;;;;0.97;0.97;;;8.80;99.90;8.00;102175.00;;;;5113636;28;20180;-65
2022/04/27 01:24:20;;;;;;;0.50;0.50;;;8.70;99.90;8.00;102219.00;;;;5113355;28;20266;-65
2022/04/27 01:26:51;;;;;;;1.17;1.07;;;8.70;99.90;8.50;102220.00;;;;5113619;28;20176;-65
2022/04/27 01:29:24;;;;;;;0.40;0.40;;;8.80;99.90;8.30;102181.00;;;;5099535;27;20187;-65
2022/04/27 01:32:01;;;;;;;0.43;0.43;;;8.80;99.90;8.20;102175.00;;;;5116769;27;20246;-65
2022/04/27 01:34:28;;;;;;;0.50;0.50;;;8.70;99.90;8.90;102230.00;;;;5133509;27;20175;-66
2022/04/27 01:37:59;;;;;;;2.03;1.47;;;8.90;99.90;9.10;102230.00;;;;5116878;27;20187;-65
2022/04/27 01:39:48;;;;;;;0.97;0.97;;;9.20;99.90;9.30;102178.00;;;;5133813;27;20193;-65
2022/04/27 01:42:17;;;;;;;0.40;0.40;;;9.40;99.90;9.50;102218.00;;;;5133603;27;20176;-65
2022/04/27 01:44:48;;;;;;;0.90;0.90;;;9.60;99.90;9.40;102217.00;;;;5133627;27;20211;-66
2022/04/27 01:47:17;;;;;;;0.40;0.40;;;9.60;99.90;8.70;102210.00;;;;5133444;27;20649;-65
2022/04/27 01:49:54;;;;;;;0.60;0.60;;;9.40;99.90;8.70;102170.00;;;;5134057;27;20211;-65
2022/04/27 01:55:15;;;;;;;0.40;0.40;;;9.30;99.90;8.90;102209.00;;;;5133795;27;20289;-65
2022/04/27 01:57:49;;;;;;;0.70;0.70;;;9.10;99.90;9.20;102221.00;;;;5133454;27;20591;-65
2022/04/27 02:00:18;;;;;;;0.60;0.60;;;9.30;99.90;9.20;102214.00;;;;5123532;27;20231;-65
2022/04/27 02:02:46;;;;;;;1.37;1.33;;;9.30;99.90;8.70;102175.00;;;;5095553;28;20186;-65
2022/04/27 02:05:17;;;;;;;1.33;1.00;;;9.20;99.90;8.80;102219.00;;;;5113080;28;20352;-65
2022/04/27 02:07:46;;;;;;;0.60;0.60;;;9.20;99.90;8.80;102217.00;;;;5112464;28;20175;-66
2022/04/27 02:10:18;;;;;;;0.97;0.97;;;9.10;99.90;9.20;102227.00;;;;5095788;28;20197;-66
2022/04/27 02:12:49;;;;;;;0.40;0.40;;;9.30;99.90;8.70;102233.00;;;;5095078;28;20218;-64
2022/04/27 02:15:18;;;;;;;0.50;0.50;;;9.20;99.90;9.00;102231.00;;;;5113919;28;20188;-64
2022/04/27 02:17:52;;;;;;;0.60;0.60;;;9.20;99.90;9.20;102186.00;;;;5112400;28;20225;-64
2022/04/27 02:20:23;;;;;;;1.03;1.03;;;9.30;99.90;9.10;102228.00;;;;5112755;28;20546;-64
2022/04/27 02:22:50;;;;;;;0.50;0.50;;;9.20;99.90;9.00;102191.00;;;;5112859;28;20159;-64
2022/04/27 02:25:24;;;;;;;0.60;0.60;;;9.20;99.90;9.10;102233.00;;;;5112653;28;20191;-63
2022/04/27 02:27:57;;;;;;;0.50;0.50;;;9.30;99.90;8.80;102233.00;;;;5113213;28;20184;-63
2022/04/27 02:30:28;;;;;;;1.03;1.03;;;9.20;99.90;8.90;102229.00;;;;5105349;28;20541;-64
2022/04/27 02:32:57;;;;;;;1.10;1.10;;;9.30;99.90;9.10;102234.00;;;;5132532;28;20217;-64
2022/04/27 02:35:28;;;;;;;0.70;0.70;;;9.30;99.90;8.90;102244.00;;;;5116021;28;20192;-64
2022/04/27 02:37:59;;;;;;;0.50;0.50;;;9.20;99.90;8.90;102203.00;;;;5133060;28;20179;-64
2022/04/27 02:40:31;;;;;;;0.50;0.50;;;9.20;99.90;9.00;102248.00;;;;5116387;28;20171;-64
2022/04/27 02:43:03;;;;;;;0.40;0.40;;;9.20;99.90;8.40;102243.00;;;;5132891;28;20569;-64
2022/04/27 02:45:34;;;;;;;0.43;0.43;;;9.00;99.90;7.80;102239.00;;;;5132792;28;20185;-64
2022/04/27 02:48:06;;;;;;;0.50;0.50;;;8.70;99.90;8.30;102238.00;;;;5115542;28;20637;-64
2022/04/27 02:53:22;;;;;;;0.60;0.60;;;8.40;99.90;8.20;102251.00;;;;5133243;28;20189;-65
2022/04/27 02:55:50;;;;;;;3.03;2.93;;;8.40;99.90;8.40;102249.00;;;;5132758;28;20172;-64
2022/04/27 02:58:21;;;;;;;2.87;2.27;;;8.50;99.90;8.60;102253.00;;;;5133817;27;20538;-65
2022/04/27 03:00:53;;;;;;;0.50;0.50;;;8.60;99.90;7.90;102241.00;;;;5131664;28;20186;-65
2022/04/27 03:03:21;;;;;;;0.97;0.97;;;8.60;99.90;8.20;102205.00;;;;5133456;28;20184;-65
2022/04/27 03:05:50;;;;;;;0.60;0.60;;;8.50;99.90;8.60;102214.00;;;;5132743;28;20182;-65
2022/04/27 03:08:16;;;;;;;2.30;2.03;;;8.70;99.90;8.70;102205.00;;;;5115322;28;20182;-64
2022/04/27 03:10:47;;;;;;;0.50;0.50;;;8.80;99.90;8.50;102247.00;;;;5115506;28;20202;-64
2022/04/27 03:13:18;;;;;;;0.40;0.40;;;8.70;99.90;8.20;102234.00;;;;5132875;28;20287;-64
2022/04/27 03:15:49;;;;;;;1.10;1.10;;;8.70;99.90;8.60;102244.00;;;;5134012;28;20187;-64
2022/04/27 03:18:19;;;;;;;0.50;0.50;;;8.70;99.90;8.70;102209.00;;;;5133413;27;20242;-64
2022/04/27 03:20:50;;;;;;;0.57;0.57;;;8.80;99.90;8.60;102251.00;;;;5136623;27;20173;-64
2022/04/27 03:23:24;;;;;;;1.60;1.57;;;8.80;99.90;8.80;102239.00;;;;5136261;27;20186;-63
2022/04/27 03:25:56;;;;;;;1.73;1.63;;;8.90;99.90;8.60;102219.00;;;;5119769;27;20574;-64
2022/04/27 03:28:27;;;;;;;1.80;1.80;;;8.90;99.90;8.80;102243.00;;;;5119240;27;20190;-65
2022/04/27 03:31:07;;;;;;;1.53;1.53;;;9.00;99.90;8.90;102206.00;;;;5124499;27;20190;-64
2022/04/27 03:33:38;;;;;;;0.50;0.50;;;9.00;99.90;8.50;102197.00;;;;5117062;28;20189;-65
2022/04/27 03:36:11;;;;;;;0.50;0.50;;;8.90;99.90;8.00;102195.00;;;;5115660;28;20542;-65
2022/04/27 03:38:41;;;;;;;0.50;0.50;;;8.60;99.90;8.10;102238.00;;;;5099291;28;20185;-65
2022/04/27 03:41:08;;;;;;;0.50;0.50;;;8.40;99.90;7.90;102217.00;;;;5116536;27;20625;-65
2022/04/27 03:43:41;;;;;;;0.60;0.60;;;8.20;99.90;7.70;102237.00;;;;5115347;28;20197;-65
2022/04/27 03:46:09;;;;;;;0.50;0.50;;;8.00;99.90;7.80;102240.00;;;;5115632;28;20177;-65
2022/04/27 03:48:37;;;;;;;0.60;0.60;;;8.00;99.90;8.00;102244.00;;;;5098574;28;20188;-65
2022/04/27 03:51:06;;;;;;;0.50;0.50;;;8.10;99.90;8.00;102249.00;;;;5115226;28;20225;-65
2022/04/27 03:53:40;;;;;;;0.60;0.60;;;8.20;99.90;8.00;102255.00;;;;5115468;28;20264;-65
2022/04/27 03:56:06;;;;;;;0.60;0.60;;;8.20;99.90;8.20;102254.00;;;;5115249;28;20160;-65
2022/04/27 03:58:35;;;;;;;1.47;1.47;;;8.30;99.90;8.00;102212.00;;;;5115295;28;20697;-65
2022/04/27 04:01:04;;;;;;;1.43;1.23;;;8.30;99.90;8.20;102214.00;;;;5115153;28;20192;-64
2022/04/27 04:03:35;;;;;;;0.93;0.93;;;8.30;99.90;7.70;102268.00;;;;5115273;28;20184;-65
2022/04/27 04:06:07;;;;;;;0.50;0.50;;;8.20;99.90;7.50;102253.00;;;;5114943;28;20178;-65
2022/04/27 04:08:38;;;;;;;0.50;0.50;;;8.00;99.90;7.40;102266.00;;;;5115851;28;20185;-64
2022/04/27 04:11:04;;;;;;;0.60;0.60;;;7.90;99.90;7.00;102258.00;;;;5098087;28;20185;-64
2022/04/27 04:13:30;;;;;;;1.63;0.93;;;7.50;99.90;7.10;102270.00;;;;5114708;28;20627;-64
2022/04/27 04:16:02;;;;;;;1.60;1.23;;;7.50;99.90;7.30;102234.00;;;;5115223;28;20179;-65
2022/04/27 04:18:33;;;;;;;0.73;0.73;;;7.40;99.90;7.30;102274.00;;;;5114893;28;20169;-65
2022/04/27 04:21:04;;;;;;;1.20;0.93;;;7.50;99.90;7.50;102283.00;;;;5115677;28;20661;-65
2022/04/27 04:23:32;;;;;;;0.50;0.50;;;7.60;99.90;7.40;102273.00;;;;5116212;28;20200;-65
2022/04/27 04:28:53;;;;;;;0.60;0.60;;;7.40;99.90;7.00;102281.00;;;;5115638;28;20191;-65
2022/04/27 04:31:22;;;;;;;0.50;0.50;;;7.40;99.90;6.40;102233.00;;;;5126972;27;20204;-65
2022/04/27 04:33:47;;;;;;;0.60;0.60;;;7.20;99.90;6.20;102282.00;;;;5135292;27;20668;-65
2022/04/27 04:36:15;;;;;;;2.07;1.70;;;6.80;99.90;7.10;102280.00;;;;5134760;27;20187;-65
2022/04/27 04:38:42;;;;;;;1.47;1.47;;;7.10;99.90;7.50;102296.00;;;;5134878;27;20183;-65
2022/04/27 04:41:12;;;;;;;0.70;0.70;;;7.50;99.90;7.80;102249.00;;;;5134371;27;20180;-65
2022/04/27 04:43:41;;;;;;;0.60;0.60;;;7.80;99.90;7.70;102261.00;;;;5134979;27;20205;-65
2022/04/27 04:46:10;;;;;;;0.80;0.80;;;8.00;99.90;7.80;102298.00;;;;5134886;27;20156;-64
2022/04/27 04:48:41;;;;;;;0.80;0.80;;;8.00;99.90;7.90;102306.00;;;;5134922;27;20232;-64
2022/04/27 04:51:07;;;;;;;0.73;0.73;;;8.10;99.90;7.60;102265.00;;;;5134490;27;20654;-64
2022/04/27 04:53:39;;;;;;;2.17;1.97;;;8.10;99.90;7.90;102309.00;;;;5134734;27;20180;-64
2022/04/27 04:56:05;;;;;;;4.20;1.87;;;8.10;99.90;8.10;102302.00;;;;5134067;27;20176;-64
2022/04/27 04:58:31;;;;;;;0.53;0.53;;;8.30;99.90;7.50;102291.00;;;;5134525;27;20182;-65
2022/04/27 05:01:01;;;;;;;0.60;0.60;;;8.20;99.90;7.70;102295.00;;;;5134216;27;20182;-64
2022/04/27 05:03:36;;;;;;;0.80;0.80;;;8.20;99.90;8.00;102313.00;;;;5136138;27;20182;-64
2022/04/27 05:06:04;;;;;;;0.70;0.70;;;8.30;99.90;8.30;102313.00;;;;5134596;27;20543;-64
2022/04/27 05:08:38;;;;;;;0.73;0.73;;;8.50;99.90;8.50;102267.00;;;;5134174;27;20173;-64
2022/04/27 05:11:04;;;;;;;0.70;0.70;;;8.70;99.90;8.20;102314.00;;;;5133773;27;20178;-64
2022/04/27 05:13:30;;;;;;;1.17;1.17;;;8.60;99.90;9.20;102328.00;;;;5117097;27;20660;-64
2022/04/27 05:16:01;;;;;;;1.07;1.07;;;9.20;99.90;9.50;102308.00;;;;5117325;27;20180;-64
2022/04/27 05:18:27;;;;;;;0.30;0.30;;;9.60;99.90;9.70;102277.00;;;;5117166;27;20184;-64
2022/04/27 05:20:53;;;;;;;0.20;0.20;;;10.00;99.90;10.10;102280.00;;;;5134177;27;20183;-64
2022/04/27 05:23:19;;;;;;;0.30;0.30;;;10.30;99.90;10.10;102324.00;;;;5116776;27;20180;-63
2022/04/27 05:25:50;;;;;;;1.10;1.10;;;10.60;99.90;11.30;102293.00;;;;5133966;27;20182;-64
2022/04/27 05:31:53;;;;;;;0.30;0.30;;;11.20;99.90;11.40;102328.00;;;;5134356;27;20221;-64
2022/04/27 05:34:02;;;;;;;0.17;0.17;;;11.10;99.90;11.30;102340.00;;;;5133981;27;20195;-64
2022/04/27 05:36:36;;;;;;;1.47;1.37;;;11.50;99.90;10.60;102332.00;;;;5133877;27;20515;-64
2022/04/27 05:39:05;;;;;;;0.20;0.20;;;11.30;99.90;12.40;102349.00;;;;5133895;27;20348;-64
2022/04/27 05:41:39;;;;;;;0.20;0.20;;;12.10;99.90;13.20;102371.00;;;;5133305;27;20182;-64
2022/04/27 05:44:12;;;;;;;0.30;0.30;;;13.10;99.90;13.70;102384.00;;;;5117166;27;20629;-65
2022/04/27 05:46:41;;;;;;;0.30;0.30;;;13.70;99.90;13.60;102400.00;;;;5133570;27;20290;-65
2022/04/27 05:49:11;;;;;;;0.20;0.20;;;13.60;99.90;12.20;102388.00;;;;5116442;27;20179;-65
2022/04/27 05:51:45;;;;;;;0.40;0.40;;;13.00;99.90;12.90;102402.00;;;;5133470;27;20197;-65
2022/04/27 05:54:19;;;;;;;1.37;1.27;;;13.20;99.90;10.50;102351.00;;;;5134373;27;20183;-65
2022/04/27 05:56:52;;;;;;;0.87;0.87;;;12.00;99.90;13.20;102331.00;;;;5135023;27;20279;-65
2022/04/27 05:59:18;;;;;;;1.43;1.43;;;12.70;99.90;14.30;102414.00;;;;5133400;27;20195;-66
2022/04/27 06:01:50;;;;;;;0.70;0.70;;;14.00;99.90;15.80;102457.00;;;;5133082;27;20599;-66
2022/04/27 06:04:21;;;;;;;0.10;0.10;;;15.30;99.90;16.70;102465.00;;;;5116111;28;20735;-65
2022/04/27 06:06:47;;;;;;;0.20;0.20;;;16.00;99.90;14.40;102426.00;;;;5116227;27;20223;-65
2022/04/27 06:09:13;;;;;;;1.40;1.30;;;15.30;99.90;13.60;102424.00;;;;5132775;27;20175;-65
2022/04/27 06:11:39;;;;;;;0.43;0.43;;;15.00;99.90;15.10;102470.00;;;;5133339;27;20196;-66
2022/04/27 06:14:08;;;;;;;1.17;1.17;;;15.20;99.90;12.30;102385.00;;;;5132607;27;20186;-65
2022/04/27 06:16:34;;;;;;;0.27;0.27;;;14.00;99.90;13.30;102410.00;;;;5114425;27;20222;-65
2022/04/27 06:19:01;;;;;;;0.30;0.30;;;13.70;99.90;14.40;102395.00;;;;5131554;27;20594;-65
2022/04/27 06:21:31;;;;;;;0.60;0.60;;;14.00;99.90;14.00;102408.00;;;;5133782;27;20171;-66
2022/04/27 06:23:58;;;;;;;3.27;3.00;;;14.20;99.90;12.60;102422.00;;;;5131367;27;20191;-66
2022/04/27 06:26:25;;;;;;;0.70;0.70;;;13.60;99.90;14.60;102436.00;;;;5129189;27;20196;-65
2022/04/27 06:28:53;;;;;;;1.17;1.07;;;14.10;99.90;13.00;102415.00;;;;5124114;27;20194;-65
2022/04/27 06:31:20;;;;;;;0.83;0.83;;;13.80;99.90;14.00;102438.00;;;;5119369;28;20217;-66
2022/04/27 06:33:48;;;;;;;1.20;0.63;;;14.10;99.90;14.20;102444.00;;;;5132946;28;20213;-65
2022/04/27 06:36:22;;;;;;;1.13;1.03;;;14.30;99.90;13.80;102435.00;;;;5133350;28;20238;-66
2022/04/27 06:38:54;;;;;;;5.30;1.07;;;14.10;99.90;14.20;102456.00;;;;5113561;28;20189;-67
2022/04/27 06:41:25;;;;;;;1.50;1.50;;;14.70;99.90;12.30;102447.00;;;;5115900;28;20188;-65
2022/04/27 06:43:51;;;;;;;0.40;0.40;;;14.00;99.90;12.50;102416.00;;;;5133081;28;20643;-66
2022/04/27 06:46:17;;;;;;;0.47;0.47;;;13.60;99.90;14.20;102394.00;;;;5133043;28;20179;-67
2022/04/27 06:48:47;;;;;;;0.10;0.10;;;14.40;99.90;15.70;102466.00;;;;5114051;28;20182;-66
2022/04/27 06:51:21;;;;;;;0.10;0.10;;;15.30;99.90;16.50;102492.00;;;;5106349;28;20665;-66
2022/04/27 06:53:53;;;;;;;1.90;1.30;;;15.90;99.90;15.10;102506.00;;;;5115644;27;20175;-66
2022/04/27 06:56:24;;;;;;;1.60;1.50;;;15.90;99.90;11.30;102448.00;;;;5116653;28;20182;-65
2022/04/27 06:58:56;;;;;;;0.70;0.70;;;13.50;99.90;12.60;102442.00;;;;5117175;28;20181;-68
2022/04/27 07:01:24;;;;;;;0.83;0.73;;;13.30;99.90;13.20;102461.00;;;;5119125;27;20192;-67
2022/04/27 07:03:54;;;;;;;1.80;1.70;;;13.60;99.90;13.80;102475.00;;;;5137155;27;20182;-66
2022/04/27 07:06:30;;;;;;;2.23;1.80;;;14.10;99.90;11.80;102452.00;;;;5119931;27;20182;-67
2022/04/27 07:09:02;;;;;;;1.50;1.10;;;13.10;99.90;13.20;102454.00;;;;5135701;27;20177;-67
2022/04/27 07:11:28;;;;;;;0.10;0.10;;;13.50;99.90;15.10;102461.00;;;;5119441;27;20200;-66
2022/04/27 07:13:54;;;;;;;0.40;0.40;;;14.40;99.90;14.10;102514.00;;;;5118663;27;20197;-68
2022/04/27 07:16:21;;;;;;;0.33;0.33;;;14.80;99.90;15.40;102541.00;;;;5136891;27;20624;-68
2022/04/27 07:18:47;;;;;;;2.08;1.00;;;15.40;99.90;16.00;102556.00;;;;5137097;27;20187;-67
2022/04/27 07:21:18;;;;;;;2.25;1.38;;;15.80;99.90;14.80;102560.00;;;;5118730;27;20190;-69
2022/04/27 07:23:44;;;;;;;0.88;0.88;;;15.30;99.90;14.50;102572.00;;;;5135134;27;20181;-69
2022/04/27 07:26:12;;;;;;;0.15;0.15;;;15.10;99.90;15.50;102586.00;;;;5136774;27;20230;-68
2022/04/27 07:28:38;;;;;;;1.20;0.95;;;15.40;99.90;16.00;102585.00;;;;5136302;27;20163;-68
2022/04/27 07:31:05;;;;;;;0.30;0.30;;;16.10;99.90;14.10;102569.00;;;;5135327;27;20607;-69
2022/04/27 07:33:37;;;;;;;3.83;0.40;;;14.80;99.90;14.70;102594.00;;;;5098644;28;20205;-67
2022/04/27 07:36:08;;;;;;;0.15;0.15;;;15.10;99.90;15.00;102586.00;;;;5116087;28;20175;-68
2022/04/27 07:38:34;;;;;;;0.35;0.35;;;15.50;99.90;15.10;102602.00;;;;5115726;28;20179;-70
2022/04/27 07:41:00;;;;;;;0.20;0.15;;;15.40;99.90;17.40;102612.00;;;;5115630;28;20650;-70
2022/04/27 07:43:26;;;;;;;0.20;0.20;;;16.70;99.90;18.10;102630.00;;;;5115665;28;20188;-67
2022/04/27 07:45:54;;;;;;;0.30;0.30;;;17.70;99.90;14.90;102568.00;;;;5098000;28;20225;-69
2022/04/27 07:48:23;;;;;;;0.50;0.50;;;16.70;99.90;17.80;102581.00;;;;5114415;28;20403;-68
2022/04/27 07:50:54;;;;;;;0.10;0.10;;;17.20;99.90;16.20;102571.00;;;;5115408;28;20191;-69
2022/04/27 07:53:20;;;;;;;0.82;0.82;;;16.70;99.90;17.10;102555.00;;;;5115438;28;20207;-68
2022/04/27 07:55:46;;;;;;;0.98;0.90;;;17.20;99.90;18.20;102515.00;;;;5116042;28;20672;-67
2022/04/27 07:58:14;;;;;;;0.20;0.20;;;17.80;99.90;19.20;102542.00;;;;5098420;28;20752;-68
2022/04/27 08:00:40;;;;;;;0.47;0.30;;;18.40;99.90;18.50;102553.00;;;;5116189;28;20200;-67
2022/04/27 08:03:11;;;;;;;1.05;0.73;;;18.50;99.90;15.90;102565.00;;;;5114491;28;20239;-69
2022/04/27 08:05:45;;;;;;;0.20;0.20;;;17.80;99.90;17.40;102550.00;;;;5114216;28;20325;-69
2022/04/27 08:08:16;;;;;;;0.35;0.35;;;17.60;99.90;18.60;102560.00;;;;5098356;28;20626;-68
2022/04/27 08:10:41;;;;;;;0.20;0.20;;;18.00;99.90;18.60;102553.00;;;;5115183;28;20250;-68
2022/04/27 08:13:10;;;;;;;0.40;0.40;;;18.40;99.90;18.80;102552.00;;;;5114391;28;20677;-68
2022/04/27 08:15:37;;;;;;;1.05;0.73;;;18.70;99.00;18.20;102562.00;;;;5114939;28;20175;-68
2022/04/27 08:18:10;;;;;;;0.52;0.40;;;18.60;98.30;18.80;102517.00;;;;5114866;28;20216;-69
2022/04/27 08:23:29;;;;;;;1.00;0.93;;;18.50;98.50;18.90;102551.00;;;;5115233;28;20292;-68
2022/04/27 08:25:57;;;;;;;0.10;0.10;;;18.70;97.70;16.00;102588.00;;;;5114719;28;20161;-68
2022/04/27 08:28:24;;;;;;;0.55;0.50;;;17.30;99.30;15.70;102588.00;;;;5114422;28;20176;-67
2022/04/27 08:30:56;;;;;;;0.50;0.50;;;16.90;99.80;15.80;102610.00;;;;5114756;28;20172;-67
2022/04/27 08:33:22;;;;;;;1.63;1.55;;;16.40;99.90;16.60;102590.00;;;;5128080;27;20210;-69
2022/04/27 08:35:49;;;;;;;0.93;0.93;;;17.00;99.90;16.70;102601.00;;;;5131602;27;20194;-69
2022/04/27 08:38:19;;;;;;;1.55;0.90;;;17.00;99.90;18.10;102590.00;;;;5135255;27;20259;-69
2022/04/27 08:40:47;;;;;;;1.13;0.98;;;17.60;99.90;18.60;102574.00;;;;5135000;27;20187;-68
2022/04/27 08:43:14;;;;;;;0.10;0.10;;;18.20;99.90;19.10;102580.00;;;;5133721;27;20243;-68
2022/04/27 08:45:47;;;;;;;0.20;0.20;;;18.50;98.60;18.90;102573.00;;;;5134352;27;20179;-69
2022/04/27 08:48:18;;;;;;;0.45;0.45;;;18.70;98.20;17.90;102586.00;;;;5117960;27;20179;-69
2022/04/27 08:50:54;;;;;;;0.20;0.20;;;18.80;97.30;18.60;102588.00;;;;5133267;27;20262;-68
2022/04/27 08:53:21;;;;;;;0.10;0.10;;;18.70;97.90;18.40;102587.00;;;;5107186;27;20227;-69
2022/04/27 08:55:52;;;;;;;0.80;0.80;;;19.00;97.10;18.10;102585.00;;;;5115741;27;20194;-66
2022/04/27 08:58:22;;;;;;;0.10;0.10;;;19.00;96.90;19.40;102576.00;;;;5113944;28;20511;-67
2022/04/27 09:00:48;;;;;;;0.10;0.10;;;19.20;96.80;17.40;102596.00;;;;5114139;28;20176;-66
2022/04/27 09:03:27;;;;;;;0.30;0.30;;;18.40;96.90;16.40;102599.00;;;;5127490;27;20183;-65
2022/04/27 09:06:04;;;;;;;0.73;0.73;;;17.10;98.00;17.00;102609.00;;;;5135359;27;20171;-60
2022/04/27 09:08:36;;;;;;;1.00;0.95;;;17.20;98.40;17.20;102606.00;;;;5133566;27;20174;-61
2022/04/27 09:11:37;;;;;;;0.45;0.45;;;17.30;98.40;18.20;102602.00;;;;5134139;27;20179;-61
2022/04/27 09:14:09;;;;;;;0.55;0.55;;;18.00;97.90;18.50;102588.00;;;;5135061;27;20197;-60
2022/04/27 09:22:45;;;;;;;0.10;0.10;;;16.50;99.20;16.80;102607.00;;;;5134075;27;20198;-62
2022/04/27 09:25:11;;;;;;;0.50;0.47;;;17.20;98.30;17.40;102611.00;;;;5116024;27;20181;-67
2022/04/27 09:27:37;;;;;;;0.40;0.40;;;17.40;98.60;15.10;102631.00;;;;5117100;27;20541;-67
2022/04/27 09:30:11;;;;;;;2.37;1.60;;;16.60;98.50;15.10;102647.00;;;;5116798;27;20255;-67
2022/04/27 09:32:37;;;;;;;0.40;0.40;;;15.70;99.70;16.00;102623.00;;;;5132963;27;20693;-67
2022/04/27 09:35:08;;;;;;;0.20;0.20;;;16.00;99.40;15.80;102643.00;;;;5133176;27;20161;-69
2022/04/27 09:37:43;;;;;;;0.30;0.30;;;16.10;99.50;16.30;102630.00;;;;5132873;27;20540;-68
2022/04/27 09:40:13;;;;;;;0.70;0.70;;;16.50;98.70;17.10;102598.00;;;;5133006;27;20177;-68
2022/04/27 09:42:46;;;;;;;0.40;0.40;;;17.00;98.40;18.10;102604.00;;;;5116062;27;20260;-67
2022/04/27 09:45:24;;;;;;;0.43;0.43;;;17.80;97.50;18.90;102601.00;;;;5132491;27;20221;-67
2022/04/27 09:48:01;;;;;;;0.25;0.25;;;18.60;96.70;19.20;102599.00;;;;5116461;27;20202;-67
2022/04/27 09:50:56;;;;;;;0.32;0.32;;;19.10;96.60;18.70;102560.00;;;;5116677;27;20210;-67
2022/04/27 09:53:22;;;;;;;1.13;1.13;;;18.90;95.90;17.90;102595.00;;;;5109768;27;20221;-67
2022/04/27 09:55:55;;;;;;;0.52;0.52;;;18.50;96.20;17.00;102574.00;;;;5116559;27;20187;-67
2022/04/27 09:58:26;;;;;;;0.40;0.40;;;17.70;96.70;17.80;102600.00;;;;5133322;27;20258;-68
2022/04/27 10:00:57;;;;;;;0.47;0.47;;;17.60;97.10;18.10;102564.00;;;;5115729;27;20555;-68
2022/04/27 10:03:25;;;;;;;0.30;0.30;;;18.00;96.20;18.60;102599.00;;;;5133338;27;20278;-68
2022/04/27 10:05:51;;;;;;;0.10;0.10;;;18.20;96.60;20.00;102582.00;;;;5116247;27;20193;-68
2022/04/27 10:08:20;;;;;;;1.40;1.33;;;19.10;95.90;19.90;102581.00;;;;5133173;27;20175;-68
2022/04/27 10:10:51;;;;;;;0.47;0.47;;;19.70;94.80;19.00;102597.00;;;;5114172;27;20176;-75
2022/04/27 10:13:20;;;;;;;0.32;0.32;;;19.10;95.50;19.90;102555.00;;;;5132224;27;20218;-69
2022/04/27 10:15:48;;;;;;;0.75;0.50;;;19.60;95.00;16.60;102557.00;;;;5132446;27;20191;-69
2022/04/27 10:18:16;;;;;;;0.10;0.10;;;18.30;95.30;18.40;102602.00;;;;5133098;27;20184;-68
2022/04/27 10:33:09;;;;;;;1.65;0.98;;;18.80;94.80;17.60;102593.00;;;;5169170;27;155397;-68
2022/04/27 10:35:36;;;;;;;0.88;0.88;;;18.10;95.70;18.50;102582.00;;;;5151079;27;20193;-68
2022/04/27 10:38:05;;;;;;;0.65;0.65;;;18.20;96.20;18.60;102575.00;;;;5133424;27;20284;-68
2022/04/27 10:40:40;;;;;;;0.20;0.20;;;18.70;95.60;18.50;102546.00;;;;5152132;27;20637;-69
2022/04/27 10:43:06;;;;;;;1.58;1.52;;;18.70;95.50;19.10;102587.00;;;;5149809;27;20577;-70
2022/04/27 10:45:34;;;;;;;1.70;1.60;;;18.80;94.90;19.40;102589.00;;;;5150946;27;20198;-70
2022/04/27 10:48:06;;;;;;;0.95;0.95;;;19.10;94.60;20.10;102578.00;;;;5150879;27;20588;-70
2022/04/27 10:50:35;;;;;;;2.47;0.70;;;19.60;94.70;18.70;102572.00;;;;5128931;27;20549;-70
2022/04/27 10:53:23;;;;;;;3.20;2.45;;;18.90;94.50;19.60;102572.00;;;;5125563;27;20232;-70
2022/04/27 10:55:53;;;;;;;0.35;0.35;;;19.60;93.90;20.80;102565.00;;;;5113387;28;20179;-70
2022/04/27 10:58:37;;;;;;;2.20;2.00;;;20.40;93.70;18.60;102587.00;;;;5130197;28;20228;-70
2022/04/27 11:01:12;;;;;;;0.70;0.40;;;19.70;93.30;18.80;102582.00;;;;5129933;28;20584;-70
2022/04/27 11:03:39;;;;;;;0.93;0.90;;;19.00;93.90;18.70;102588.00;;;;5131223;28;20190;-70
2022/04/27 11:06:10;;;;;;;0.73;0.60;;;18.70;94.50;19.70;102588.00;;;;5130083;28;20182;-70
2022/04/27 11:09:40;;;;;;;0.17;0.17;;;19.30;94.30;18.90;102581.00;;;;5131212;27;20224;-70
2022/04/27 11:12:08;;;;;;;0.60;0.60;;;19.50;93.60;18.00;102584.00;;;;5133733;27;20308;-69
2022/04/27 11:14:35;;;;;;;0.50;0.50;;;18.30;94.40;18.90;102572.00;;;;5141433;27;20270;-69
2022/04/27 11:17:01;;;;;;;0.47;0.47;;;18.90;94.00;19.70;102581.00;;;;5130976;27;20219;-69
2022/04/27 11:19:54;;;;;;;0.43;0.43;;;19.30;94.10;17.00;102582.00;;;;5129628;27;20186;-69
2022/04/27 11:22:22;;;;;;;0.38;0.38;;;18.30;94.10;18.00;102579.00;;;;5127008;27;20646;-68
2022/04/27 11:24:49;;;;;;;0.20;0.20;;;18.30;94.90;18.70;102577.00;;;;5128669;28;20184;-69
2022/04/27 11:27:29;;;;;;;1.40;1.30;;;18.70;95.00;18.40;102543.00;;;;5128524;27;20168;-68
2022/04/27 11:29:56;;;;;;;0.30;0.30;;;19.00;94.30;18.90;102528.00;;;;5129282;27;20790;-68
2022/04/27 11:32:22;;;;;;;0.20;0.20;;;18.80;94.30;18.80;102557.00;;;;5128332;27;20300;-69
2022/04/27 11:34:49;;;;;;;1.70;1.38;;;18.80;94.30;17.90;102593.00;;;;5129337;28;20322;-68
2022/04/27 11:37:20;;;;;;;1.02;1.00;;;18.70;94.20;18.10;102560.00;;;;5129774;28;20179;-68
2022/04/27 11:39:47;;;;;;;3.08;1.13;;;18.60;94.10;18.50;102572.00;;;;5129381;28;20183;-68
2022/04/27 11:42:16;;;;;;;2.20;2.05;;;18.80;94.60;18.00;102571.00;;;;5112065;28;20265;-67